sensor_id;sensor_type;location;lat;lon;timestamp;P1;durP1;ratioP1;P2;durP2;ratioP2
15331;SDS011;7766;51.534;6.722;2024-03-23T00:55:51;9.70;;;2.40;;
15331;SDS011;7766;51.534;6.722;2024-03-23T00:58:17;7.67;;;2.40;;
15331;SDS011;7766;51.534;6.722;2024-03-23T01:00:44;5.73;;;2.00;;
15331;SDS011;7766;51.534;6.722;2024-03-23T01:03:10;6.17;;;1.93;;
15331;SDS011;7766;51.534;6.722;2024-03-23T01:05:36;5.30;;;1.67;;
15331;SDS011;7766;51.534;6.722;2024-03-23T01:08:02;8.43;;;1.97;;
15331;SDS011;7766;51.534;6.722;2024-03-23T01:10:27;6.23;;;1.57;;
15331;SDS011;7766;51.534;6.722;2024-03-23T01:12:53;5.40;;;1.93;;
15331;SDS011;7766;51.534;6.722;2024-03-23T01:15:19;4.17;;;1.40;;
15331;SDS011;7766;51.534;6.722;2024-03-23T01:17:44;6.80;;;1.50;;
15331;SDS011;7766;51.534;6.722;2024-03-23T01:20:10;5.83;;;1.60;;
15331;SDS011;7766;51.534;6.722;2024-03-23T01:22:36;7.60;;;1.77;;
15331;SDS011;7766;51.534;6.722;2024-03-23T01:25:02;6.70;;;1.67;;
15331;SDS011;7766;51.534;6.722;2024-03-23T01:27:28;6.23;;;1.77;;
15331;SDS011;7766;51.534;6.722;2024-03-23T01:29:54;5.83;;;1.20;;
15331;SDS011;7766;51.534;6.722;2024-03-23T01:32:20;7.53;;;1.30;;
15331;SDS011;7766;51.534;6.722;2024-03-23T01:34:46;7.97;;;1.30;;
15331;SDS011;7766;51.534;6.722;2024-03-23T01:37:12;6.63;;;1.70;;
15331;SDS011;7766;51.534;6.722;2024-03-23T01:39:38;4.63;;;1.67;;
15331;SDS011;7766;51.534;6.722;2024-03-23T01:42:04;6.23;;;1.83;;
15331;SDS011;7766;51.534;6.722;2024-03-23T01:44:30;7.73;;;1.50;;
15331;SDS011;7766;51.534;6.722;2024-03-23T01:46:56;5.47;;;1.93;;
15331;SDS011;7766;51.534;6.722;2024-03-23T01:49:22;6.00;;;1.67;;
15331;SDS011;7766;51.534;6.722;2024-03-23T01:51:48;2.20;;;1.30;;
15331;SDS011;7766;51.534;6.722;2024-03-23T01:54:14;7.43;;;2.30;;
15331;SDS011;7766;51.534;6.722;2024-03-23T01:56:41;5.40;;;1.77;;
15331;SDS011;7766;51.534;6.722;2024-03-23T01:59:07;7.03;;;1.57;;
15331;SDS011;7766;51.534;6.722;2024-03-23T02:01:33;6.33;;;1.83;;
15331;SDS011;7766;51.534;6.722;2024-03-23T02:04:03;5.60;;;1.43;;
15331;SDS011;7766;51.534;6.722;2024-03-23T02:06:28;5.53;;;2.00;;
15331;SDS011;7766;51.534;6.722;2024-03-23T02:08:54;6.67;;;1.50;;
15331;SDS011;7766;51.534;6.722;2024-03-23T02:11:20;5.67;;;1.50;;
15331;SDS011;7766;51.534;6.722;2024-03-23T02:13:46;7.10;;;1.73;;
15331;SDS011;7766;51.534;6.722;2024-03-23T02:16:12;8.13;;;1.80;;
15331;SDS011;7766;51.534;6.722;2024-03-23T02:18:38;7.97;;;1.77;;
15331;SDS011;7766;51.534;6.722;2024-03-23T02:21:04;8.40;;;1.73;;
15331;SDS011;7766;51.534;6.722;2024-03-23T02:23:30;4.60;;;2.07;;
15331;SDS011;7766;51.534;6.722;2024-03-23T02:25:56;10.83;;;1.93;;
15331;SDS011;7766;51.534;6.722;2024-03-23T02:28:22;6.27;;;1.67;;
15331;SDS011;7766;51.534;6.722;2024-03-23T02:30:51;7.40;;;1.70;;
15331;SDS011;7766;51.534;6.722;2024-03-23T02:33:17;5.47;;;1.40;;
15331;SDS011;7766;51.534;6.722;2024-03-23T02:35:46;10.27;;;2.07;;
15331;SDS011;7766;51.534;6.722;2024-03-23T02:38:12;6.27;;;2.17;;
15331;SDS011;7766;51.534;6.722;2024-03-23T02:40:38;8.43;;;1.90;;
15331;SDS011;7766;51.534;6.722;2024-03-23T02:43:04;8.93;;;1.90;;
15331;SDS011;7766;51.534;6.722;2024-03-23T02:45:30;5.33;;;1.53;;
15331;SDS011;7766;51.534;6.722;2024-03-23T02:47:55;5.07;;;1.60;;
15331;SDS011;7766;51.534;6.722;2024-03-23T02:50:21;7.07;;;1.97;;
15331;SDS011;7766;51.534;6.722;2024-03-23T02:52:47;7.17;;;1.67;;
15331;SDS011;7766;51.534;6.722;2024-03-23T02:55:13;9.93;;;2.30;;
15331;SDS011;7766;51.534;6.722;2024-03-23T02:57:39;8.07;;;2.27;;
15331;SDS011;7766;51.534;6.722;2024-03-23T03:00:05;7.03;;;2.20;;
15331;SDS011;7766;51.534;6.722;2024-03-23T03:02:32;6.07;;;1.47;;
15331;SDS011;7766;51.534;6.722;2024-03-23T03:04:58;8.83;;;1.97;;
15331;SDS011;7766;51.534;6.722;2024-03-23T03:07:23;6.27;;;1.70;;
15331;SDS011;7766;51.534;6.722;2024-03-23T03:09:49;8.03;;;1.93;;
15331;SDS011;7766;51.534;6.722;2024-03-23T03:12:15;8.30;;;2.67;;
15331;SDS011;7766;51.534;6.722;2024-03-23T03:14:41;5.27;;;1.43;;
15331;SDS011;7766;51.534;6.722;2024-03-23T03:17:07;8.97;;;1.90;;
15331;SDS011;7766;51.534;6.722;2024-03-23T03:19:33;7.40;;;1.47;;
15331;SDS011;7766;51.534;6.722;2024-03-23T03:21:59;7.37;;;1.77;;
15331;SDS011;7766;51.534;6.722;2024-03-23T03:24:25;10.20;;;2.27;;
15331;SDS011;7766;51.534;6.722;2024-03-23T03:26:50;6.53;;;1.90;;
15331;SDS011;7766;51.534;6.722;2024-03-23T03:29:16;9.73;;;1.80;;
15331;SDS011;7766;51.534;6.722;2024-03-23T03:31:42;4.60;;;1.30;;
15331;SDS011;7766;51.534;6.722;2024-03-23T03:34:08;7.07;;;2.30;;
15331;SDS011;7766;51.534;6.722;2024-03-23T03:36:34;6.10;;;1.80;;
15331;SDS011;7766;51.534;6.722;2024-03-23T03:38:59;4.20;;;1.80;;
15331;SDS011;7766;51.534;6.722;2024-03-23T03:41:25;4.63;;;2.23;;
15331;SDS011;7766;51.534;6.722;2024-03-23T03:43:50;6.30;;;2.40;;
15331;SDS011;7766;51.534;6.722;2024-03-23T03:46:16;6.00;;;1.80;;
15331;SDS011;7766;51.534;6.722;2024-03-23T03:48:42;7.00;;;1.93;;
15331;SDS011;7766;51.534;6.722;2024-03-23T03:51:10;4.53;;;1.53;;
15331;SDS011;7766;51.534;6.722;2024-03-23T03:53:35;8.47;;;2.37;;
15331;SDS011;7766;51.534;6.722;2024-03-23T03:56:02;8.97;;;1.70;;
15331;SDS011;7766;51.534;6.722;2024-03-23T03:58:27;9.83;;;2.27;;
15331;SDS011;7766;51.534;6.722;2024-03-23T04:00:53;5.87;;;2.10;;
15331;SDS011;7766;51.534;6.722;2024-03-23T04:03:19;7.90;;;1.83;;
15331;SDS011;7766;51.534;6.722;2024-03-23T04:05:52;7.63;;;2.00;;
15331;SDS011;7766;51.534;6.722;2024-03-23T04:08:18;9.17;;;2.33;;
15331;SDS011;7766;51.534;6.722;2024-03-23T04:10:44;5.90;;;1.80;;
15331;SDS011;7766;51.534;6.722;2024-03-23T04:13:09;7.70;;;1.53;;
15331;SDS011;7766;51.534;6.722;2024-03-23T04:15:35;9.90;;;2.57;;
15331;SDS011;7766;51.534;6.722;2024-03-23T04:18:00;10.80;;;2.47;;
15331;SDS011;7766;51.534;6.722;2024-03-23T04:20:26;8.13;;;2.47;;
15331;SDS011;7766;51.534;6.722;2024-03-23T04:22:52;6.87;;;2.23;;
15331;SDS011;7766;51.534;6.722;2024-03-23T04:25:18;4.90;;;1.70;;
15331;SDS011;7766;51.534;6.722;2024-03-23T04:27:44;9.57;;;2.70;;
15331;SDS011;7766;51.534;6.722;2024-03-23T04:30:11;8.77;;;2.73;;
15331;SDS011;7766;51.534;6.722;2024-03-23T04:32:37;6.53;;;2.47;;
15331;SDS011;7766;51.534;6.722;2024-03-23T04:35:03;13.47;;;3.00;;
15331;SDS011;7766;51.534;6.722;2024-03-23T04:37:34;10.70;;;3.10;;
15331;SDS011;7766;51.534;6.722;2024-03-23T04:40:00;6.77;;;3.13;;
15331;SDS011;7766;51.534;6.722;2024-03-23T04:42:27;6.00;;;2.70;;
15331;SDS011;7766;51.534;6.722;2024-03-23T04:44:53;8.50;;;2.80;;
15331;SDS011;7766;51.534;6.722;2024-03-23T04:47:18;6.20;;;2.63;;
15331;SDS011;7766;51.534;6.722;2024-03-23T04:49:44;6.53;;;2.90;;
15331;SDS011;7766;51.534;6.722;2024-03-23T04:52:10;8.37;;;3.40;;
15331;SDS011;7766;51.534;6.722;2024-03-23T04:54:37;7.63;;;2.90;;
15331;SDS011;7766;51.534;6.722;2024-03-23T04:57:05;10.33;;;2.80;;
15331;SDS011;7766;51.534;6.722;2024-03-23T04:59:31;7.70;;;2.97;;
15331;SDS011;7766;51.534;6.722;2024-03-23T05:01:56;7.83;;;3.40;;
15331;SDS011;7766;51.534;6.722;2024-03-23T05:04:22;9.57;;;4.07;;
15331;SDS011;7766;51.534;6.722;2024-03-23T05:06:48;7.83;;;3.70;;
15331;SDS011;7766;51.534;6.722;2024-03-23T05:09:14;9.47;;;3.60;;
15331;SDS011;7766;51.534;6.722;2024-03-23T05:11:40;10.60;;;3.83;;
15331;SDS011;7766;51.534;6.722;2024-03-23T05:14:11;10.43;;;3.50;;
15331;SDS011;7766;51.534;6.722;2024-03-23T05:16:37;7.93;;;3.83;;
15331;SDS011;7766;51.534;6.722;2024-03-23T05:19:03;11.30;;;3.57;;
15331;SDS011;7766;51.534;6.722;2024-03-23T05:21:28;27.73;;;4.27;;
15331;SDS011;7766;51.534;6.722;2024-03-23T05:23:54;6.23;;;3.37;;
15331;SDS011;7766;51.534;6.722;2024-03-23T05:26:21;7.57;;;3.43;;
15331;SDS011;7766;51.534;6.722;2024-03-23T05:28:48;10.87;;;3.93;;
15331;SDS011;7766;51.534;6.722;2024-03-23T05:31:22;10.50;;;3.67;;
15331;SDS011;7766;51.534;6.722;2024-03-23T05:33:56;8.10;;;3.73;;
15331;SDS011;7766;51.534;6.722;2024-03-23T05:36:22;7.53;;;3.80;;
15331;SDS011;7766;51.534;6.722;2024-03-23T05:38:51;9.10;;;3.50;;
15331;SDS011;7766;51.534;6.722;2024-03-23T05:41:17;9.97;;;3.67;;
15331;SDS011;7766;51.534;6.722;2024-03-23T05:43:43;8.77;;;3.77;;
15331;SDS011;7766;51.534;6.722;2024-03-23T05:46:09;14.67;;;4.43;;
15331;SDS011;7766;51.534;6.722;2024-03-23T05:48:35;11.87;;;3.63;;
15331;SDS011;7766;51.534;6.722;2024-03-23T05:51:01;9.07;;;3.67;;
15331;SDS011;7766;51.534;6.722;2024-03-23T05:53:27;8.13;;;3.67;;
15331;SDS011;7766;51.534;6.722;2024-03-23T05:56:03;8.93;;;3.50;;
15331;SDS011;7766;51.534;6.722;2024-03-23T05:58:29;9.73;;;3.50;;
15331;SDS011;7766;51.534;6.722;2024-03-23T06:00:59;7.20;;;3.00;;
15331;SDS011;7766;51.534;6.722;2024-03-23T06:03:26;7.37;;;3.10;;
15331;SDS011;7766;51.534;6.722;2024-03-23T06:05:52;10.47;;;4.00;;
15331;SDS011;7766;51.534;6.722;2024-03-23T06:08:18;8.03;;;3.60;;
15331;SDS011;7766;51.534;6.722;2024-03-23T06:10:44;6.47;;;3.57;;
15331;SDS011;7766;51.534;6.722;2024-03-23T06:13:13;9.00;;;4.30;;
15331;SDS011;7766;51.534;6.722;2024-03-23T06:15:39;9.10;;;3.40;;
15331;SDS011;7766;51.534;6.722;2024-03-23T06:18:05;8.70;;;3.27;;
15331;SDS011;7766;51.534;6.722;2024-03-23T06:20:32;9.07;;;3.50;;
15331;SDS011;7766;51.534;6.722;2024-03-23T06:22:58;6.10;;;3.33;;
15331;SDS011;7766;51.534;6.722;2024-03-23T06:25:24;15.30;;;4.37;;
15331;SDS011;7766;51.534;6.722;2024-03-23T06:27:50;6.73;;;3.63;;
15331;SDS011;7766;51.534;6.722;2024-03-23T06:30:16;7.50;;;3.43;;
15331;SDS011;7766;51.534;6.722;2024-03-23T06:32:42;8.00;;;3.27;;
15331;SDS011;7766;51.534;6.722;2024-03-23T06:35:08;11.10;;;3.50;;
15331;SDS011;7766;51.534;6.722;2024-03-23T06:37:35;8.03;;;3.30;;
15331;SDS011;7766;51.534;6.722;2024-03-23T06:40:01;7.87;;;3.83;;
15331;SDS011;7766;51.534;6.722;2024-03-23T06:42:29;5.17;;;3.20;;
15331;SDS011;7766;51.534;6.722;2024-03-23T06:44:55;5.50;;;3.57;;
15331;SDS011;7766;51.534;6.722;2024-03-23T06:47:21;10.30;;;3.40;;
15331;SDS011;7766;51.534;6.722;2024-03-23T06:49:47;10.43;;;3.63;;
15331;SDS011;7766;51.534;6.722;2024-03-23T06:52:12;7.93;;;4.17;;
15331;SDS011;7766;51.534;6.722;2024-03-23T06:54:38;11.37;;;3.80;;
15331;SDS011;7766;51.534;6.722;2024-03-23T06:57:04;12.73;;;4.37;;
15331;SDS011;7766;51.534;6.722;2024-03-23T06:59:30;13.60;;;4.17;;
15331;SDS011;7766;51.534;6.722;2024-03-23T07:01:56;6.00;;;3.67;;
15331;SDS011;7766;51.534;6.722;2024-03-23T07:04:21;9.47;;;4.50;;
15331;SDS011;7766;51.534;6.722;2024-03-23T07:06:47;12.47;;;4.83;;
15331;SDS011;7766;51.534;6.722;2024-03-23T07:09:13;8.47;;;4.67;;
15331;SDS011;7766;51.534;6.722;2024-03-23T07:11:38;9.07;;;4.73;;
15331;SDS011;7766;51.534;6.722;2024-03-23T07:14:04;9.93;;;5.17;;
15331;SDS011;7766;51.534;6.722;2024-03-23T07:16:30;11.43;;;5.20;;
15331;SDS011;7766;51.534;6.722;2024-03-23T07:18:56;11.63;;;4.87;;
15331;SDS011;7766;51.534;6.722;2024-03-23T07:21:22;17.87;;;5.20;;
15331;SDS011;7766;51.534;6.722;2024-03-23T07:23:47;10.93;;;4.67;;
15331;SDS011;7766;51.534;6.722;2024-03-23T07:26:13;16.03;;;5.30;;
15331;SDS011;7766;51.534;6.722;2024-03-23T07:28:39;13.10;;;4.93;;
15331;SDS011;7766;51.534;6.722;2024-03-23T07:31:11;12.77;;;4.77;;
15331;SDS011;7766;51.534;6.722;2024-03-23T07:33:42;10.07;;;4.90;;
15331;SDS011;7766;51.534;6.722;2024-03-23T07:36:09;12.00;;;5.13;;
15331;SDS011;7766;51.534;6.722;2024-03-23T07:38:35;13.93;;;5.03;;
15331;SDS011;7766;51.534;6.722;2024-03-23T07:43:33;9.70;;;4.93;;
15331;SDS011;7766;51.534;6.722;2024-03-23T07:46:00;10.03;;;4.87;;
15331;SDS011;7766;51.534;6.722;2024-03-23T07:48:26;12.37;;;5.13;;
15331;SDS011;7766;51.534;6.722;2024-03-23T07:51:02;8.27;;;4.97;;
15331;SDS011;7766;51.534;6.722;2024-03-23T07:53:32;14.03;;;5.33;;
15331;SDS011;7766;51.534;6.722;2024-03-23T07:55:59;11.10;;;4.53;;
15331;SDS011;7766;51.534;6.722;2024-03-23T07:58:25;8.77;;;4.10;;
15331;SDS011;7766;51.534;6.722;2024-03-23T08:00:52;11.97;;;4.40;;
15331;SDS011;7766;51.534;6.722;2024-03-23T08:03:18;10.77;;;4.30;;
15331;SDS011;7766;51.534;6.722;2024-03-23T08:05:43;14.87;;;4.07;;
15331;SDS011;7766;51.534;6.722;2024-03-23T08:08:09;10.90;;;4.30;;
15331;SDS011;7766;51.534;6.722;2024-03-23T08:10:35;9.30;;;3.90;;
15331;SDS011;7766;51.534;6.722;2024-03-23T08:13:01;10.10;;;3.43;;
15331;SDS011;7766;51.534;6.722;2024-03-23T08:15:29;10.60;;;3.50;;
15331;SDS011;7766;51.534;6.722;2024-03-23T08:17:57;9.87;;;3.50;;
15331;SDS011;7766;51.534;6.722;2024-03-23T08:20:23;12.17;;;3.43;;
15331;SDS011;7766;51.534;6.722;2024-03-23T08:22:49;10.63;;;3.50;;
15331;SDS011;7766;51.534;6.722;2024-03-23T08:25:15;9.83;;;3.13;;
15331;SDS011;7766;51.534;6.722;2024-03-23T08:27:41;10.27;;;3.50;;
15331;SDS011;7766;51.534;6.722;2024-03-23T08:30:09;6.37;;;3.37;;
15331;SDS011;7766;51.534;6.722;2024-03-23T08:32:34;11.53;;;2.60;;
15331;SDS011;7766;51.534;6.722;2024-03-23T08:35:00;7.83;;;2.57;;
15331;SDS011;7766;51.534;6.722;2024-03-23T08:37:26;5.20;;;2.57;;
15331;SDS011;7766;51.534;6.722;2024-03-23T08:39:52;5.67;;;2.80;;
15331;SDS011;7766;51.534;6.722;2024-03-23T08:42:17;6.90;;;2.40;;
15331;SDS011;7766;51.534;6.722;2024-03-23T08:44:43;5.63;;;2.80;;
15331;SDS011;7766;51.534;6.722;2024-03-23T08:47:11;4.73;;;2.60;;
15331;SDS011;7766;51.534;6.722;2024-03-23T08:49:37;5.83;;;2.53;;
15331;SDS011;7766;51.534;6.722;2024-03-23T08:52:03;10.93;;;2.87;;
15331;SDS011;7766;51.534;6.722;2024-03-23T08:54:29;9.13;;;2.70;;
15331;SDS011;7766;51.534;6.722;2024-03-23T08:56:56;7.27;;;2.47;;
15331;SDS011;7766;51.534;6.722;2024-03-23T08:59:21;7.70;;;2.57;;
15331;SDS011;7766;51.534;6.722;2024-03-23T09:01:48;6.87;;;2.53;;
15331;SDS011;7766;51.534;6.722;2024-03-23T09:04:14;6.37;;;2.80;;
15331;SDS011;7766;51.534;6.722;2024-03-23T09:06:42;6.07;;;2.40;;
15331;SDS011;7766;51.534;6.722;2024-03-23T09:09:08;9.03;;;2.50;;
15331;SDS011;7766;51.534;6.722;2024-03-23T09:11:34;6.03;;;2.63;;
15331;SDS011;7766;51.534;6.722;2024-03-23T09:13:59;11.73;;;2.43;;
15331;SDS011;7766;51.534;6.722;2024-03-23T09:16:25;14.03;;;5.10;;
15331;SDS011;7766;51.534;6.722;2024-03-23T09:18:51;5.57;;;2.60;;
15331;SDS011;7766;51.534;6.722;2024-03-23T09:21:17;6.53;;;2.57;;
15331;SDS011;7766;51.534;6.722;2024-03-23T09:23:43;6.93;;;2.60;;
15331;SDS011;7766;51.534;6.722;2024-03-23T09:26:09;6.40;;;2.43;;
15331;SDS011;7766;51.534;6.722;2024-03-23T09:28:36;5.80;;;2.43;;
15331;SDS011;7766;51.534;6.722;2024-03-23T09:31:02;6.93;;;3.07;;
15331;SDS011;7766;51.534;6.722;2024-03-23T09:33:32;5.97;;;2.40;;
15331;SDS011;7766;51.534;6.722;2024-03-23T09:35:58;8.43;;;3.17;;
15331;SDS011;7766;51.534;6.722;2024-03-23T09:38:28;7.57;;;2.60;;
15331;SDS011;7766;51.534;6.722;2024-03-23T09:40:54;12.27;;;3.20;;
15331;SDS011;7766;51.534;6.722;2024-03-23T09:43:20;6.37;;;3.00;;
15331;SDS011;7766;51.534;6.722;2024-03-23T09:45:46;11.33;;;3.07;;
15331;SDS011;7766;51.534;6.722;2024-03-23T09:48:12;7.37;;;2.63;;
15331;SDS011;7766;51.534;6.722;2024-03-23T09:50:38;8.47;;;2.27;;
15331;SDS011;7766;51.534;6.722;2024-03-23T09:53:07;10.30;;;3.07;;
15331;SDS011;7766;51.534;6.722;2024-03-23T09:55:34;7.83;;;2.60;;
15331;SDS011;7766;51.534;6.722;2024-03-23T09:58:01;6.67;;;2.27;;
15331;SDS011;7766;51.534;6.722;2024-03-23T10:00:27;7.73;;;1.93;;
15331;SDS011;7766;51.534;6.722;2024-03-23T10:02:55;5.00;;;1.90;;
15331;SDS011;7766;51.534;6.722;2024-03-23T10:05:21;8.93;;;2.40;;
15331;SDS011;7766;51.534;6.722;2024-03-23T10:07:52;5.17;;;1.90;;
15331;SDS011;7766;51.534;6.722;2024-03-23T10:10:18;4.23;;;1.90;;
15331;SDS011;7766;51.534;6.722;2024-03-23T10:12:48;4.20;;;1.87;;
15331;SDS011;7766;51.534;6.722;2024-03-23T10:17:47;5.27;;;1.83;;
15331;SDS011;7766;51.534;6.722;2024-03-23T10:20:13;3.77;;;1.90;;
15331;SDS011;7766;51.534;6.722;2024-03-23T10:22:47;4.63;;;1.43;;
15331;SDS011;7766;51.534;6.722;2024-03-23T10:25:13;5.00;;;1.50;;
15331;SDS011;7766;51.534;6.722;2024-03-23T10:27:39;6.30;;;1.33;;
15331;SDS011;7766;51.534;6.722;2024-03-23T10:32:35;10.83;;;5.17;;
15331;SDS011;7766;51.534;6.722;2024-03-23T10:35:16;5.73;;;2.03;;
15331;SDS011;7766;51.534;6.722;2024-03-23T10:37:44;4.00;;;2.20;;
15331;SDS011;7766;51.534;6.722;2024-03-23T10:40:11;2.77;;;1.10;;
15331;SDS011;7766;51.534;6.722;2024-03-23T10:42:37;2.43;;;1.10;;
15331;SDS011;7766;51.534;6.722;2024-03-23T10:45:04;4.07;;;0.97;;
15331;SDS011;7766;51.534;6.722;2024-03-23T10:47:31;5.90;;;1.60;;
15331;SDS011;7766;51.534;6.722;2024-03-23T10:49:57;3.17;;;1.17;;
15331;SDS011;7766;51.534;6.722;2024-03-23T10:52:23;1.90;;;0.60;;
15331;SDS011;7766;51.534;6.722;2024-03-23T10:54:50;4.07;;;1.40;;
15331;SDS011;7766;51.534;6.722;2024-03-23T10:57:38;3.07;;;0.70;;
15331;SDS011;7766;51.534;6.722;2024-03-23T11:00:03;1.93;;;0.80;;
15331;SDS011;7766;51.534;6.722;2024-03-23T11:02:29;3.37;;;1.43;;
15331;SDS011;7766;51.534;6.722;2024-03-23T11:04:55;4.17;;;1.10;;
15331;SDS011;7766;51.534;6.722;2024-03-23T11:09:53;2.53;;;0.93;;
15331;SDS011;7766;51.534;6.722;2024-03-23T11:14:48;2.73;;;0.93;;
15331;SDS011;7766;51.534;6.722;2024-03-23T11:17:25;3.27;;;1.10;;
15331;SDS011;7766;51.534;6.722;2024-03-23T11:20:01;2.13;;;0.70;;
15331;SDS011;7766;51.534;6.722;2024-03-23T11:25:17;3.23;;;0.90;;
15331;SDS011;7766;51.534;6.722;2024-03-23T11:27:45;4.00;;;1.30;;
15331;SDS011;7766;51.534;6.722;2024-03-23T11:30:12;5.87;;;2.40;;
15331;SDS011;7766;51.534;6.722;2024-03-23T11:32:38;4.23;;;1.60;;
15331;SDS011;7766;51.534;6.722;2024-03-23T11:35:04;2.13;;;1.27;;
15331;SDS011;7766;51.534;6.722;2024-03-23T11:37:30;3.47;;;1.40;;
15331;SDS011;7766;51.534;6.722;2024-03-23T11:39:56;4.53;;;1.50;;
15331;SDS011;7766;51.534;6.722;2024-03-23T11:42:22;5.73;;;1.23;;
15331;SDS011;7766;51.534;6.722;2024-03-23T11:44:47;5.13;;;1.40;;
15331;SDS011;7766;51.534;6.722;2024-03-23T11:47:13;5.43;;;1.57;;
15331;SDS011;7766;51.534;6.722;2024-03-23T11:49:39;6.20;;;1.60;;
15331;SDS011;7766;51.534;6.722;2024-03-23T11:52:08;5.23;;;1.70;;
15331;SDS011;7766;51.534;6.722;2024-03-23T11:54:33;5.53;;;1.27;;
15331;SDS011;7766;51.534;6.722;2024-03-23T11:57:02;7.00;;;1.40;;
15331;SDS011;7766;51.534;6.722;2024-03-23T11:59:32;7.17;;;1.27;;
15331;SDS011;7766;51.534;6.722;2024-03-23T12:02:12;3.83;;;1.40;;
15331;SDS011;7766;51.534;6.722;2024-03-23T12:04:39;6.93;;;1.70;;
15331;SDS011;7766;51.534;6.722;2024-03-23T12:07:09;4.27;;;1.20;;
15331;SDS011;7766;51.534;6.722;2024-03-23T12:09:35;9.37;;;2.10;;
15331;SDS011;7766;51.534;6.722;2024-03-23T12:12:17;6.80;;;1.73;;
15331;SDS011;7766;51.534;6.722;2024-03-23T12:17:12;4.83;;;1.13;;
15331;SDS011;7766;51.534;6.722;2024-03-23T12:19:39;2.93;;;1.10;;
15331;SDS011;7766;51.534;6.722;2024-03-23T12:22:06;4.30;;;1.10;;
15331;SDS011;7766;51.534;6.722;2024-03-23T12:24:33;2.47;;;0.90;;
15331;SDS011;7766;51.534;6.722;2024-03-23T12:27:00;2.40;;;0.87;;
15331;SDS011;7766;51.534;6.722;2024-03-23T12:29:32;4.83;;;1.37;;
15331;SDS011;7766;51.534;6.722;2024-03-23T12:32:00;3.10;;;0.83;;
15331;SDS011;7766;51.534;6.722;2024-03-23T12:34:27;4.60;;;1.47;;
15331;SDS011;7766;51.534;6.722;2024-03-23T12:36:53;5.93;;;2.33;;
15331;SDS011;7766;51.534;6.722;2024-03-23T12:39:19;2.63;;;1.37;;
15331;SDS011;7766;51.534;6.722;2024-03-23T12:41:46;4.20;;;1.27;;
15331;SDS011;7766;51.534;6.722;2024-03-23T12:44:12;3.90;;;1.20;;
15331;SDS011;7766;51.534;6.722;2024-03-23T12:46:38;2.00;;;0.90;;
15331;SDS011;7766;51.534;6.722;2024-03-23T12:49:04;3.73;;;1.47;;
15331;SDS011;7766;51.534;6.722;2024-03-23T12:51:31;4.37;;;1.50;;
15331;SDS011;7766;51.534;6.722;2024-03-23T12:53:57;6.93;;;1.90;;
15331;SDS011;7766;51.534;6.722;2024-03-23T12:56:23;4.13;;;1.57;;
15331;SDS011;7766;51.534;6.722;2024-03-23T12:58:49;6.30;;;2.17;;
15331;SDS011;7766;51.534;6.722;2024-03-23T13:01:16;4.73;;;1.40;;
15331;SDS011;7766;51.534;6.722;2024-03-23T13:03:42;2.47;;;1.20;;
15331;SDS011;7766;51.534;6.722;2024-03-23T13:06:11;3.20;;;1.47;;
15331;SDS011;7766;51.534;6.722;2024-03-23T13:08:37;5.57;;;1.30;;
15331;SDS011;7766;51.534;6.722;2024-03-23T13:11:03;3.83;;;1.33;;
15331;SDS011;7766;51.534;6.722;2024-03-23T13:13:28;3.20;;;1.40;;
15331;SDS011;7766;51.534;6.722;2024-03-23T13:15:56;4.17;;;1.50;;
15331;SDS011;7766;51.534;6.722;2024-03-23T13:18:22;3.50;;;1.40;;
15331;SDS011;7766;51.534;6.722;2024-03-23T13:20:48;4.30;;;1.23;;
15331;SDS011;7766;51.534;6.722;2024-03-23T13:23:14;4.33;;;1.70;;
15331;SDS011;7766;51.534;6.722;2024-03-23T13:25:40;4.13;;;1.43;;
15331;SDS011;7766;51.534;6.722;2024-03-23T13:28:05;2.47;;;1.23;;
15331;SDS011;7766;51.534;6.722;2024-03-23T13:30:31;4.43;;;1.60;;
15331;SDS011;7766;51.534;6.722;2024-03-23T13:32:57;3.87;;;1.17;;
15331;SDS011;7766;51.534;6.722;2024-03-23T13:35:23;5.87;;;1.50;;
15331;SDS011;7766;51.534;6.722;2024-03-23T13:37:49;3.90;;;1.50;;
15331;SDS011;7766;51.534;6.722;2024-03-23T13:40:14;2.87;;;1.17;;
15331;SDS011;7766;51.534;6.722;2024-03-23T13:42:40;3.77;;;1.63;;
15331;SDS011;7766;51.534;6.722;2024-03-23T13:45:06;3.87;;;1.10;;
15331;SDS011;7766;51.534;6.722;2024-03-23T13:47:32;3.33;;;1.10;;
15331;SDS011;7766;51.534;6.722;2024-03-23T13:49:58;2.93;;;1.00;;
15331;SDS011;7766;51.534;6.722;2024-03-23T13:52:24;2.67;;;1.20;;
15331;SDS011;7766;51.534;6.722;2024-03-23T13:54:51;4.87;;;0.97;;
15331;SDS011;7766;51.534;6.722;2024-03-23T13:57:17;2.50;;;0.80;;
15331;SDS011;7766;51.534;6.722;2024-03-23T13:59:46;2.17;;;1.10;;
15331;SDS011;7766;51.534;6.722;2024-03-23T14:02:12;2.60;;;1.20;;
15331;SDS011;7766;51.534;6.722;2024-03-23T14:04:39;2.87;;;1.23;;
15331;SDS011;7766;51.534;6.722;2024-03-23T14:07:05;1.93;;;0.97;;
15331;SDS011;7766;51.534;6.722;2024-03-23T14:09:32;2.27;;;1.00;;
15331;SDS011;7766;51.534;6.722;2024-03-23T14:11:57;3.23;;;0.77;;
15331;SDS011;7766;51.534;6.722;2024-03-23T14:14:25;5.60;;;1.20;;
15331;SDS011;7766;51.534;6.722;2024-03-23T14:16:50;9.77;;;1.10;;
15331;SDS011;7766;51.534;6.722;2024-03-23T14:19:18;4.57;;;1.20;;
15331;SDS011;7766;51.534;6.722;2024-03-23T14:21:44;3.47;;;1.20;;
15331;SDS011;7766;51.534;6.722;2024-03-23T14:24:09;2.93;;;0.90;;
15331;SDS011;7766;51.534;6.722;2024-03-23T14:26:35;5.33;;;1.40;;
15331;SDS011;7766;51.534;6.722;2024-03-23T14:29:01;2.63;;;1.10;;
15331;SDS011;7766;51.534;6.722;2024-03-23T14:31:28;2.50;;;0.97;;
15331;SDS011;7766;51.534;6.722;2024-03-23T14:33:53;5.57;;;1.10;;
15331;SDS011;7766;51.534;6.722;2024-03-23T14:36:19;1.67;;;0.80;;
15331;SDS011;7766;51.534;6.722;2024-03-23T14:38:48;2.10;;;0.90;;
15331;SDS011;7766;51.534;6.722;2024-03-23T14:41:14;6.63;;;0.83;;
15331;SDS011;7766;51.534;6.722;2024-03-23T14:43:40;3.90;;;0.90;;
15331;SDS011;7766;51.534;6.722;2024-03-23T14:48:41;2.73;;;0.90;;
15331;SDS011;7766;51.534;6.722;2024-03-23T14:51:08;5.67;;;0.90;;
15331;SDS011;7766;51.534;6.722;2024-03-23T14:53:37;3.23;;;1.00;;
15331;SDS011;7766;51.534;6.722;2024-03-23T14:56:05;7.60;;;0.83;;
15331;SDS011;7766;51.534;6.722;2024-03-23T14:58:31;3.60;;;1.10;;
15331;SDS011;7766;51.534;6.722;2024-03-23T15:01:01;3.63;;;1.00;;
15331;SDS011;7766;51.534;6.722;2024-03-23T15:03:27;4.67;;;1.07;;
15331;SDS011;7766;51.534;6.722;2024-03-23T15:05:56;2.10;;;0.87;;
15331;SDS011;7766;51.534;6.722;2024-03-23T15:08:22;3.80;;;1.00;;
15331;SDS011;7766;51.534;6.722;2024-03-23T15:10:48;2.60;;;0.90;;
15331;SDS011;7766;51.534;6.722;2024-03-23T15:13:14;5.27;;;2.40;;
15331;SDS011;7766;51.534;6.722;2024-03-23T15:15:43;3.23;;;1.20;;
15331;SDS011;7766;51.534;6.722;2024-03-23T15:18:13;2.87;;;0.90;;
15331;SDS011;7766;51.534;6.722;2024-03-23T15:20:57;3.30;;;1.00;;
15331;SDS011;7766;51.534;6.722;2024-03-23T15:23:27;2.77;;;1.03;;
15331;SDS011;7766;51.534;6.722;2024-03-23T15:25:59;4.33;;;1.70;;
15331;SDS011;7766;51.534;6.722;2024-03-23T15:28:26;3.67;;;0.90;;
15331;SDS011;7766;51.534;6.722;2024-03-23T15:31:03;2.27;;;0.93;;
15331;SDS011;7766;51.534;6.722;2024-03-23T15:33:35;2.43;;;1.20;;
15331;SDS011;7766;51.534;6.722;2024-03-23T15:36:01;2.80;;;0.80;;
15331;SDS011;7766;51.534;6.722;2024-03-23T15:38:27;3.17;;;1.00;;
15331;SDS011;7766;51.534;6.722;2024-03-23T15:40:56;2.70;;;0.80;;
15331;SDS011;7766;51.534;6.722;2024-03-23T15:43:22;2.73;;;1.10;;
15331;SDS011;7766;51.534;6.722;2024-03-23T15:45:57;3.57;;;0.90;;
15331;SDS011;7766;51.534;6.722;2024-03-23T15:48:25;2.33;;;1.20;;
15331;SDS011;7766;51.534;6.722;2024-03-23T15:50:59;3.53;;;1.17;;
15331;SDS011;7766;51.534;6.722;2024-03-23T15:53:27;6.47;;;1.53;;
15331;SDS011;7766;51.534;6.722;2024-03-23T15:55:57;8.10;;;1.20;;
15331;SDS011;7766;51.534;6.722;2024-03-23T15:58:23;3.90;;;1.00;;
15331;SDS011;7766;51.534;6.722;2024-03-23T16:00:58;2.97;;;1.00;;
15331;SDS011;7766;51.534;6.722;2024-03-23T16:03:31;3.27;;;1.10;;
15331;SDS011;7766;51.534;6.722;2024-03-23T16:06:02;2.60;;;0.90;;
15331;SDS011;7766;51.534;6.722;2024-03-23T16:08:29;2.73;;;1.60;;
15331;SDS011;7766;51.534;6.722;2024-03-23T16:10:58;4.00;;;1.27;;
15331;SDS011;7766;51.534;6.722;2024-03-23T16:13:25;6.60;;;2.40;;